Time;durP1;ratioP1;P1;durP2;ratioP2;P2;SDS_P1;SDS_P2;PMS_P1;PMS_P2;Temp;Humidity;BMP_temperature;BMP_pressure;BME280_temperature;BME280_humidity;BME280_pressure;Samples;Min_cycle;Max_cycle;Signal;HPM_P1;HPM_P2
2022/06/18 00:00:25;;;;;;;5.28;3.92;;;;;;;14.63;100.00;99773.61;1726706;82;21040;-63
2022/06/18 00:02:51;;;;;;;6.17;4.28;;;;;;;14.62;100.00;99776.67;1726047;82;21011;-64
2022/06/18 00:05:20;;;;;;;5.83;4.00;;;;;;;14.57;100.00;99780.84;1723534;82;21007;-63
2022/06/18 00:07:50;;;;;;;5.30;3.72;;;;;;;14.56;100.00;99772.39;1742585;82;21059;-63
2022/06/18 00:10:24;;;;;;;5.12;3.70;;;;;;;14.56;100.00;99770.44;1739847;82;21110;-63
2022/06/18 00:15:37;;;;;;;5.45;3.92;;;;;;;14.56;100.00;99766.91;1722916;82;21014;-63
2022/06/18 00:18:11;;;;;;;6.45;3.98;;;;;;;14.49;100.00;99763.73;1729279;82;20975;-63
2022/06/18 00:20:38;;;;;;;4.45;3.55;;;;;;;14.53;100.00;99771.03;1723590;82;21098;-62
2022/06/18 00:23:12;;;;;;;5.92;4.00;;;;;;;14.53;100.00;99762.81;1744710;82;21054;-63
2022/06/18 00:25:40;;;;;;;4.03;3.50;;;;;;;14.52;100.00;99762.58;1723490;82;21035;-64
2022/06/18 00:28:16;;;;;;;5.70;3.80;;;;;;;14.53;100.00;99770.22;1725777;82;21022;-63
2022/06/18 00:30:43;;;;;;;4.30;3.45;;;;;;;14.51;100.00;99766.97;1724482;82;21043;-63
2022/06/18 00:33:10;;;;;;;4.28;3.80;;;;;;;14.52;100.00;99761.21;1739490;82;21577;-64
2022/06/18 00:35:37;;;;;;;5.65;3.80;;;;;;;14.52;100.00;99762.58;1743614;82;21070;-64
2022/06/18 00:38:05;;;;;;;5.62;4.22;;;;;;;14.52;100.00;99764.50;1732129;82;21098;-64
2022/06/18 00:40:38;;;;;;;6.72;3.80;;;;;;;14.49;100.00;99763.14;1728464;82;21545;-63
2022/06/18 00:43:09;;;;;;;4.35;3.67;;;;;;;14.48;100.00;99764.28;1744159;82;21011;-63
2022/06/18 00:45:37;;;;;;;5.25;3.80;;;;;;;14.47;100.00;99770.04;1748532;82;21066;-64
2022/06/18 00:48:25;;;;;;;4.40;3.92;;;;;;;14.49;100.00;99763.73;1731498;82;21593;-63
2022/06/18 00:51:12;;;;;;;8.05;4.15;;;;;;;14.49;100.00;99767.25;1732987;82;21118;-63
2022/06/18 00:53:47;;;;;;;5.70;3.75;;;;;;;14.45;100.00;99760.19;1723188;82;21033;-63
2022/06/18 00:56:25;;;;;;;5.85;4.33;;;;;;;14.44;100.00;99759.95;1733034;82;21011;-63
2022/06/18 00:59:04;;;;;;;7.10;4.47;;;;;;;14.44;100.00;99755.84;1730379;82;21050;-63
2022/06/18 01:01:34;;;;;;;5.60;4.40;;;;;;;14.44;100.00;99758.58;1730141;82;21525;-63
2022/06/18 01:04:01;;;;;;;6.20;4.62;;;;;;;14.47;100.00;99751.69;1720054;81;21055;-63
2022/06/18 01:06:31;;;;;;;9.70;5.00;;;;;;;14.51;100.00;99753.28;1709312;82;21435;-64
2022/06/18 01:09:08;;;;;;;6.25;4.67;;;;;;;14.49;100.00;99754.14;1719856;82;21035;-63
2022/06/18 01:11:36;;;;;;;6.55;5.20;;;;;;;14.52;100.00;99752.17;1730294;82;20929;-63
2022/06/18 01:14:05;;;;;;;6.12;4.53;;;;;;;14.53;100.00;99749.67;1715647;82;21011;-63
2022/06/18 01:16:35;;;;;;;5.28;4.53;;;;;;;14.56;100.00;99747.73;1710086;82;20964;-63
2022/06/18 01:19:04;;;;;;;6.92;4.78;;;;;;;14.57;100.00;99746.60;1728375;82;21055;-63
2022/06/18 01:21:42;;;;;;;5.37;4.67;;;;;;;14.53;100.00;99749.13;1719834;82;21405;-63
2022/06/18 01:24:22;;;;;;;6.03;5.12;;;;;;;14.50;100.00;99744.24;1718053;82;21007;-63
2022/06/18 01:26:52;;;;;;;5.37;4.87;;;;;;;14.47;100.00;99740.73;1697662;82;21021;-62
2022/06/18 01:29:20;;;;;;;6.85;5.00;;;;;;;14.43;100.00;99733.66;1699941;82;21609;-62
2022/06/18 01:31:48;;;;;;;5.42;4.85;;;;;;;14.42;100.00;99738.88;1725963;82;20984;-63
2022/06/18 01:36:04;;;;;;;6.65;5.83;;;;;;;14.44;100.00;99727.08;1806002;78;22860;-62
2022/06/18 01:38:33;;;;;;;5.90;5.30;;;;;;;14.36;100.00;99736.52;1783808;78;21004;-63
2022/06/18 01:44:04;;;;;;;7.47;5.90;;;;;;;14.36;100.00;99737.33;1768913;78;21042;-63
2022/06/18 01:46:31;;;;;;;6.90;5.90;;;;;;;14.40;100.00;99733.45;1763418;78;20983;-63
2022/06/18 01:48:59;;;;;;;6.50;5.85;;;;;;;14.44;100.00;99734.48;1792561;78;21110;-62
2022/06/18 01:51:32;;;;;;;8.28;6.25;;;;;;;14.47;100.00;99732.52;1780001;80;20967;-63
2022/06/18 01:54:03;;;;;;;7.62;5.80;;;;;;;14.52;100.00;99734.37;1786785;78;20994;-63
2022/06/18 01:56:35;;;;;;;7.85;6.08;;;;;;;14.58;100.00;99730.44;1792100;78;20995;-62
2022/06/18 01:59:19;;;;;;;7.50;6.28;;;;;;;14.62;100.00;99724.06;1780294;80;21078;-63
2022/06/18 02:01:46;;;;;;;6.85;6.15;;;;;;;14.63;100.00;99732.52;1789683;80;20970;-63
2022/06/18 02:04:14;;;;;;;7.30;6.60;;;;;;;14.66;100.00;99723.73;1791055;79;21469;-62
2022/06/18 02:06:42;;;;;;;8.78;6.83;;;;;;;14.73;100.00;99723.34;1782566;80;20950;-62
2022/06/18 02:09:15;;;;;;;9.10;6.50;;;;;;;14.72;100.00;99717.60;1788046;79;21519;-62
2022/06/18 02:11:42;;;;;;;7.75;6.62;;;;;;;14.67;100.00;99721.23;1787563;80;20997;-62
2022/06/18 02:14:09;;;;;;;;;;;;;;;14.66;100.00;99731.13;1779256;80;21564;-62
2022/06/18 02:16:40;;;;;;;8.35;6.97;;;;;;;14.64;100.00;99729.23;1782963;80;20088;-63
2022/06/18 02:19:07;;;;;;;8.50;7.10;;;;;;;14.58;100.00;99731.25;1787088;80;21025;-63
2022/06/18 02:21:41;;;;;;;8.03;7.33;;;;;;;14.55;100.00;99739.25;1782826;80;20990;-62
2022/06/18 02:24:08;;;;;;;8.40;7.08;;;;;;;14.53;100.00;99735.98;1782331;79;21042;-63
2022/06/18 02:26:36;;;;;;;;;;;;;;;14.48;100.00;99729.22;1788625;79;20962;-63
2022/06/18 02:29:04;;;;;;;10.10;7.78;;;;;;;14.56;100.00;99738.14;1787292;79;20092;-62
2022/06/18 02:31:34;;;;;;;9.30;8.23;;;;;;;14.52;100.00;99742.59;1787080;80;20981;-62
2022/06/18 02:34:07;;;;;;;8.98;7.92;;;;;;;14.52;100.00;99744.78;1782158;79;21474;-61
2022/06/18 02:36:37;;;;;;;11.50;7.95;;;;;;;14.55;100.00;99746.09;1771494;80;20983;-62
2022/06/18 02:39:34;;;;;;;8.98;8.08;;;;;;;14.56;100.00;99734.83;1777466;80;21620;-62
2022/06/18 02:42:05;;;;;;;8.38;7.50;;;;;;;14.58;100.00;99737.28;1760032;80;21448;-63
2022/06/18 02:44:32;;;;;;;10.68;8.90;;;;;;;14.53;100.00;99737.34;1771497;79;21038;-63
2022/06/18 02:47:05;;;;;;;9.20;8.35;;;;;;;14.44;100.00;99748.17;1776136;80;21454;-62
2022/06/18 02:49:34;;;;;;;9.85;8.85;;;;;;;14.35;100.00;99754.86;1780301;80;21054;-64
2022/06/18 02:52:03;;;;;;;9.48;8.48;;;;;;;14.30;100.00;99753.55;1780782;80;20983;-63
2022/06/18 02:54:30;;;;;;;11.55;8.75;;;;;;;14.29;100.00;99753.28;1775237;80;21015;-64
2022/06/18 02:56:58;;;;;;;8.60;7.80;;;;;;;14.30;100.00;99756.84;1761489;80;20943;-63
2022/06/18 02:59:24;;;;;;;9.10;8.20;;;;;;;14.27;100.00;99755.52;1772456;80;21243;-63
2022/06/18 03:01:52;;;;;;;9.08;7.90;;;;;;;14.21;100.00;99762.16;1775643;79;20970;-62
2022/06/18 03:04:19;;;;;;;9.35;8.33;;;;;;;14.19;100.00;99771.78;1781291;80;21081;-63
2022/06/18 03:06:46;;;;;;;8.70;7.90;;;;;;;14.11;100.00;99760.92;1778913;79;20984;-62
2022/06/18 03:09:13;;;;;;;9.58;8.58;;;;;;;14.15;100.00;99781.13;1756370;79;21564;-62
2022/06/18 03:14:26;;;;;;;9.70;8.70;;;;;;;14.17;100.00;99780.85;1777194;79;20138;-62
2022/06/18 03:16:52;;;;;;;;;;;;;;;14.09;100.00;99779.58;1751501;79;21850;-62
2022/06/18 03:19:35;;;;;;;9.90;8.90;;;;;;;14.09;100.00;99788.34;1775181;79;20502;-63
2022/06/18 03:22:07;;;;;;;10.82;9.60;;;;;;;14.07;100.00;99785.88;1780254;79;21035;-62
2022/06/18 03:24:34;;;;;;;10.82;9.78;;;;;;;14.06;100.00;99788.93;1775358;79;21521;-63
2022/06/18 03:27:01;;;;;;;11.35;10.08;;;;;;;14.05;100.00;99790.03;1769980;79;20975;-63
2022/06/18 03:29:29;;;;;;;10.98;9.95;;;;;;;14.02;100.00;99785.14;1770394;80;21891;-64
2022/06/18 03:31:55;;;;;;;;;;;;;;;13.98;100.00;99784.09;1787069;79;21399;-64
2022/06/18 03:34:22;;;;;;;;;;;;;;;13.95;100.00;99793.72;1762022;79;20092;-63
2022/06/18 03:36:49;;;;;;;10.70;9.60;;;;;;;13.90;100.00;99782.27;1787954;79;20120;-63
2022/06/18 03:39:17;;;;;;;12.85;9.60;;;;;;;13.91;100.00;99785.83;1766500;80;21027;-63
2022/06/18 03:41:43;;;;;;;11.22;10.13;;;;;;;13.97;100.00;99783.28;1763194;79;20948;-63
2022/06/18 03:44:10;;;;;;;11.00;9.85;;;;;;;14.02;100.00;99779.67;1783312;79;21023;-63
2022/06/18 03:46:39;;;;;;;11.08;9.98;;;;;;;14.06;100.00;99780.17;1787644;79;21018;-63
2022/06/18 03:49:08;;;;;;;11.73;10.53;;;;;;;14.09;100.00;99772.73;1768397;79;21050;-63
2022/06/18 03:51:36;;;;;;;14.40;11.75;;;;;;;14.14;100.00;99782.78;1766969;79;21006;-64
2022/06/18 03:54:03;;;;;;;12.95;11.75;;;;;;;14.17;100.00;99771.27;1787825;79;21022;-64
2022/06/18 03:56:31;;;;;;;12.78;10.43;;;;;;;14.15;100.00;99778.40;1780697;79;20971;-64
2022/06/18 03:58:58;;;;;;;12.45;10.98;;;;;;;14.21;100.00;99777.21;1759817;79;20998;-64
2022/06/18 04:01:29;;;;;;;13.78;12.25;;;;;;;14.33;100.00;99776.23;1762201;79;20959;-66
2022/06/18 04:03:57;;;;;;;14.65;11.75;;;;;;;14.43;100.00;99771.19;1777885;79;21561;-67
2022/06/18 04:06:29;;;;;;;15.53;12.80;;;;;;;14.55;100.00;99775.68;1790418;79;21002;-64
2022/06/18 04:08:57;;;;;;;12.03;10.82;;;;;;;14.63;100.00;99770.09;1776922;79;21005;-63
2022/06/18 04:11:27;;;;;;;13.28;11.90;;;;;;;14.63;100.00;99770.88;1769434;79;21021;-64
2022/06/18 04:13:54;;;;;;;13.65;12.25;;;;;;;14.66;100.00;99774.42;1770310;79;21524;-65
2022/06/18 04:16:41;;;;;;;12.35;11.15;;;;;;;14.78;100.00;99773.94;1773215;79;21125;-63
2022/06/18 04:19:10;;;;;;;13.65;10.95;;;;;;;15.02;100.00;99776.00;1781917;79;21518;-62
2022/06/18 04:21:37;;;;;;;12.95;11.20;;;;;;;15.35;100.00;99776.80;1783886;79;21041;-62
2022/06/18 04:24:04;;;;;;;12.95;10.80;;;;;;;15.65;100.00;99779.58;1772653;79;21565;-63
2022/06/18 04:26:32;;;;;;;13.30;11.88;;;;;;;16.01;100.00;99783.80;1751051;79;21504;-63
2022/06/18 04:28:59;;;;;;;13.58;12.00;;;;;;;16.30;100.00;99783.70;1775832;79;21584;-62
2022/06/18 04:31:26;;;;;;;12.63;10.72;;;;;;;16.51;100.00;99779.14;1777333;79;21037;-63
2022/06/18 04:33:54;;;;;;;13.78;11.10;;;;;;;16.80;100.00;99772.69;1774853;79;21442;-63
2022/06/18 04:36:34;;;;;;;13.60;11.60;;;;;;;16.90;100.00;99761.44;1765313;79;21011;-63
2022/06/18 04:39:03;;;;;;;12.45;11.20;;;;;;;16.97;100.00;99761.81;1758615;79;21568;-62
2022/06/18 04:41:48;;;;;;;13.32;11.60;;;;;;;17.26;100.00;99765.47;1749870;79;21015;-62
2022/06/18 04:44:16;;;;;;;11.75;10.23;;;;;;;17.54;100.00;99766.10;1757014;79;21038;-63
2022/06/18 04:46:45;;;;;;;10.72;9.35;;;;;;;17.60;100.00;99762.13;1760777;79;21027;-62
2022/06/18 04:49:12;;;;;;;12.18;10.80;;;;;;;17.67;100.00;99763.86;1769877;79;21003;-62
2022/06/18 04:51:38;;;;;;;10.35;9.25;;;;;;;17.70;100.00;99759.09;1783336;80;21065;-62
2022/06/18 04:54:05;;;;;;;10.85;9.58;;;;;;;17.73;100.00;99758.45;1749125;79;21059;-62
2022/06/18 04:56:33;;;;;;;10.60;9.50;;;;;;;17.86;100.00;99759.71;1757327;79;21007;-62
2022/06/18 04:58:59;;;;;;;10.40;9.40;;;;;;;18.03;100.00;99763.07;1767941;79;21011;-61
2022/06/18 05:01:30;;;;;;;10.08;9.08;;;;;;;18.09;100.00;99759.06;1760220;80;21021;-63
2022/06/18 05:04:10;;;;;;;13.45;9.10;;;;;;;18.14;100.00;99763.61;1709258;79;21090;-60
2022/06/18 05:06:40;;;;;;;13.08;9.15;;;;;;;18.14;100.00;99761.64;1748717;79;21966;-61
2022/06/18 05:09:24;;;;;;;9.80;8.80;;;;;;;18.27;100.00;99760.72;1761845;79;21035;-61
2022/06/18 05:11:59;;;;;;;12.20;8.68;;;;;;;18.49;100.00;99768.61;1758644;80;21513;-62
2022/06/18 05:14:40;;;;;;;11.03;8.15;;;;;;;18.74;100.00;99762.33;1701141;79;21099;-62
2022/06/18 05:17:14;;;;;;;8.85;7.25;;;;;;;18.98;100.00;99762.63;1781842;79;20983;-65
2022/06/18 05:19:41;;;;;;;10.00;8.40;;;;;;;19.04;100.00;99764.63;1779715;79;21035;-63
2022/06/18 05:22:09;;;;;;;9.98;7.78;;;;;;;18.96;100.00;99765.44;1770295;79;21038;-62
2022/06/18 05:24:37;;;;;;;9.28;8.20;;;;;;;18.99;100.00;99770.33;1767937;79;21026;-61
2022/06/18 05:27:05;;;;;;;12.28;8.03;;;;;;;19.04;100.00;99777.86;1752649;79;20991;-61
2022/06/18 05:29:32;;;;;;;9.13;8.23;;;;;;;18.98;100.00;99772.84;1752729;80;20996;-61
2022/06/18 05:31:58;;;;;;;11.48;7.60;;;;;;;18.92;100.00;99780.45;1772133;79;21022;-63
2022/06/18 05:34:27;;;;;;;9.00;8.05;;;;;;;18.84;100.00;99778.53;1747667;79;21058;-62
2022/06/18 05:36:55;;;;;;;10.10;8.20;;;;;;;18.74;100.00;99782.41;1772920;79;21026;-64
2022/06/18 05:39:21;;;;;;;10.00;6.80;;;;;;;18.76;100.00;99780.16;1780904;79;21043;-60
2022/06/18 05:41:49;;;;;;;7.70;6.90;;;;;;;19.01;100.00;99779.89;1773167;79;21021;-62
2022/06/18 05:44:15;;;;;;;7.90;7.03;;;;;;;19.40;100.00;99781.61;1768761;79;21074;-64
2022/06/18 05:46:42;;;;;;;8.63;7.75;;;;;;;19.71;100.00;99774.45;1760381;80;21028;-65
2022/06/18 05:49:09;;;;;;;8.53;7.37;;;;;;;19.85;100.00;99776.43;1782599;79;21085;-65
2022/06/18 05:51:37;;;;;;;10.35;7.47;;;;;;;19.90;100.00;99780.40;1781358;79;21030;-63
2022/06/18 05:54:03;;;;;;;9.88;6.53;;;;;;;19.80;100.00;99776.03;1756840;80;21037;-66
2022/06/18 05:56:45;;;;;;;9.08;6.22;;;;;;;19.65;100.00;99766.94;1779666;80;20958;-64
2022/06/18 05:59:30;;;;;;;10.00;6.35;;;;;;;19.62;100.00;99770.38;1778007;79;21035;-66
2022/06/18 06:01:57;;;;;;;9.08;5.85;;;;;;;19.77;100.00;99773.94;1779052;80;20994;-63
2022/06/18 06:04:25;;;;;;;6.70;5.33;;;;;;;20.15;100.00;99771.17;1782549;79;21030;-63
2022/06/18 06:06:52;;;;;;;8.73;7.17;;;;;;;20.38;100.00;99771.69;1780591;80;20951;-62
2022/06/18 06:12:09;;;;;;;6.40;4.80;;;;;;;20.43;100.00;99763.20;1781370;80;21003;-65
2022/06/18 06:14:38;;;;;;;7.67;5.35;;;;;;;20.46;100.00;99764.48;1772979;79;21027;-63
2022/06/18 06:17:14;;;;;;;6.85;4.92;;;;;;;20.59;100.00;99779.98;1775483;79;20980;-64
2022/06/18 06:19:42;;;;;;;7.50;5.10;;;;;;;20.77;100.00;99770.41;1778362;79;20987;-60
2022/06/18 06:22:08;;;;;;;6.47;4.58;;;;;;;20.97;100.00;99770.98;1771893;79;20974;-64
2022/06/18 06:24:36;;;;;;;6.40;5.08;;;;;;;20.97;100.00;99770.98;1770811;79;21046;-61
2022/06/18 06:27:03;;;;;;;7.55;5.50;;;;;;;21.19;100.00;99763.70;1781371;79;21627;-62
2022/06/18 06:29:30;;;;;;;7.30;5.60;;;;;;;21.37;100.00;99759.35;1784220;79;21016;-63
2022/06/18 06:31:57;;;;;;;6.40;5.47;;;;;;;21.46;100.00;99760.89;1778274;80;21041;-63
2022/06/18 06:34:24;;;;;;;5.33;4.30;;;;;;;21.56;100.00;99766.55;1774424;79;21122;-63
2022/06/18 06:36:51;;;;;;;7.92;4.97;;;;;;;21.66;100.00;99779.38;1778238;79;21018;-63
2022/06/18 06:39:18;;;;;;;9.20;5.10;;;;;;;21.84;100.00;99781.37;1780282;79;21914;-62
2022/06/18 06:41:44;;;;;;;6.40;5.20;;;;;;;22.22;100.00;99781.05;1776540;80;21556;-63
2022/06/18 06:44:11;;;;;;;6.90;5.05;;;;;;;22.24;100.00;99771.81;1774431;79;21608;-63
2022/06/18 06:46:37;;;;;;;5.90;4.95;;;;;;;21.84;100.00;99768.90;1784039;79;21027;-63
2022/06/18 06:49:04;;;;;;;9.25;4.95;;;;;;;21.49;100.00;99775.44;1769260;80;21541;-64
2022/06/18 06:51:32;;;;;;;5.72;4.78;;;;;;;21.10;100.00;99773.21;1787192;79;21034;-66
2022/06/18 06:53:58;;;;;;;9.28;5.60;;;;;;;20.74;100.00;99778.82;1780759;80;20974;-65
2022/06/18 06:59:11;;;;;;;7.90;5.00;;;;;;;20.27;100.00;99787.01;1770797;79;21034;-65
2022/06/18 07:01:38;;;;;;;5.97;4.45;;;;;;;20.31;100.00;99789.38;1764378;79;21379;-65
2022/06/18 07:04:06;;;;;;;6.97;4.60;;;;;;;20.31;100.00;99787.42;1782952;79;21018;-65
2022/06/18 07:06:35;;;;;;;5.72;4.22;;;;;;;20.44;100.00;99787.52;1781587;79;21093;-65
2022/06/18 07:09:05;;;;;;;5.80;4.30;;;;;;;20.46;100.00;99793.52;1783274;79;21042;-72
2022/06/18 07:11:33;;;;;;;5.65;4.30;;;;;;;20.69;100.00;99790.67;1786050;80;21021;-70
2022/06/18 07:14:00;;;;;;;6.45;4.35;;;;;;;20.81;100.00;99790.16;1786484;79;21577;-70
2022/06/18 07:16:28;;;;;;;6.60;4.33;;;;;;;20.90;100.00;99789.28;1787172;80;21033;-72
2022/06/18 07:18:56;;;;;;;6.97;4.65;;;;;;;20.85;100.00;99794.44;1781599;80;21030;-72
2022/06/18 07:21:23;;;;;;;6.65;3.55;;;;;;;20.72;100.00;99792.77;1762439;80;21181;-73
2022/06/18 07:23:52;;;;;;;5.40;3.77;;;;;;;20.72;100.00;99796.34;1752217;79;21010;-69
2022/06/18 07:26:24;;;;;;;5.28;3.83;;;;;;;20.68;100.00;99793.20;1787629;80;21037;-72
2022/06/18 07:28:54;;;;;;;4.67;3.83;;;;;;;20.75;100.00;99797.05;1787676;79;21545;-70
2022/06/18 07:31:27;;;;;;;5.22;3.20;;;;;;;21.17;100.00;99797.84;1786844;80;21002;-69
2022/06/18 07:33:54;;;;;;;5.28;3.65;;;;;;;21.55;100.00;99788.47;1786621;79;21113;-71
2022/06/18 07:36:22;;;;;;;5.58;4.45;;;;;;;21.72;100.00;99791.04;1778143;80;21046;-70
2022/06/18 07:38:49;;;;;;;5.97;3.52;;;;;;;21.93;100.00;99786.23;1779339;80;21026;-71
2022/06/18 07:41:16;;;;;;;5.78;4.10;;;;;;;22.01;100.00;99782.55;1762454;80;21047;-73
2022/06/18 07:43:50;;;;;;;3.62;3.00;;;;;;;21.75;100.00;99788.99;1773890;80;21597;-69
2022/06/18 07:46:16;;;;;;;6.60;3.08;;;;;;;21.54;100.00;99788.27;1727514;80;21015;-70
2022/06/18 07:48:43;;;;;;;5.10;3.20;;;;;;;21.86;100.00;99787.36;1743748;80;20988;-69
2022/06/18 07:51:10;;;;;;;5.08;2.80;;;;;;;22.41;100.00;99789.58;1756770;80;21486;-72
2022/06/18 07:53:36;;;;;;;5.20;3.10;;;;;;;22.61;100.00;99785.02;1758202;80;20991;-70
2022/06/18 07:56:05;;;;;;;4.22;2.75;;;;;;;22.61;100.00;99785.02;1765551;80;21718;-69
2022/06/18 07:58:31;;;;;;;5.20;2.72;;;;;;;22.27;100.00;99778.86;1765881;80;21007;-72
2022/06/18 08:00:58;;;;;;;5.55;3.45;;;;;;;22.17;100.00;99782.11;1758198;80;21122;-71
2022/06/18 08:03:24;;;;;;;5.33;3.27;;;;;;;22.35;100.00;99775.73;1769069;80;21482;-69
2022/06/18 08:05:53;;;;;;;5.33;2.90;;;;;;;22.58;100.00;99776.02;1745466;81;21074;-71
2022/06/18 08:08:20;;;;;;;3.52;2.67;;;;;;;23.15;100.00;99773.77;1749118;80;21069;-71
2022/06/18 08:10:50;;;;;;;4.60;3.12;;;;;;;23.97;100.00;99768.98;1767269;80;21050;-72
2022/06/18 08:13:16;;;;;;;6.37;3.27;;;;;;;24.04;100.00;99772.75;1751523;82;21050;-70
2022/06/18 08:15:44;;;;;;;5.62;3.02;;;;;;;23.68;100.00;99768.28;1761321;80;21070;-72
2022/06/18 08:18:13;;;;;;;5.50;3.30;;;;;;;23.40;100.00;99772.25;1770587;80;21537;-71
2022/06/18 08:20:41;;;;;;;6.22;3.00;;;;;;;23.17;100.00;99780.34;1782060;80;21121;-72
2022/06/18 08:23:08;;;;;;;4.72;3.27;;;;;;;22.75;100.00;99786.87;1782014;80;21015;-71
2022/06/18 08:25:35;;;;;;;3.80;2.75;;;;;;;22.29;100.00;99784.03;1779861;80;21109;-70
2022/06/18 08:28:04;;;;;;;7.00;3.22;;;;;;;21.86;100.00;99785.19;1782454;80;21035;-73
2022/06/18 08:30:31;;;;;;;5.60;3.12;;;;;;;21.30;100.00;99780.69;1765392;79;21082;-71
2022/06/18 08:32:59;;;;;;;8.58;3.40;;;;;;;21.30;100.00;99780.69;1745622;82;21548;-70
2022/06/18 08:35:26;;;;;;;6.75;3.50;;;;;;;21.01;100.00;99771.12;1766652;79;21043;-72
2022/06/18 08:37:53;;;;;;;19.17;15.25;;;;;;;20.87;100.00;99781.66;1730250;82;21058;-71
2022/06/18 08:40:54;;;;;;;8.38;4.22;;;;;;;20.85;100.00;99779.22;1730346;81;21616;-72
2022/06/18 08:43:37;;;;;;;6.50;4.22;;;;;;;20.91;100.00;99785.34;1730595;83;21213;-69
2022/06/18 08:46:32;;;;;;;6.05;3.52;;;;;;;20.92;100.00;99777.28;1774064;80;21172;-73
2022/06/18 08:49:14;;;;;;;6.35;4.28;;;;;;;21.13;100.00;99773.94;1770290;79;21035;-67
2022/06/18 08:52:21;;;;;;;6.60;3.40;;;;;;;21.65;100.00;99776.95;1777119;79;21022;-67
2022/06/18 08:55:08;;;;;;;7.97;3.10;;;;;;;22.02;100.00;99766.16;1749663;80;21640;-67
2022/06/18 08:57:47;;;;;;;;;;;;;;;22.53;100.00;99769.34;1763547;80;21587;-67
2022/06/18 09:00:31;;;;;;;3.62;2.27;;;;;;;22.96;100.00;99769.45;1782235;79;20104;-67
2022/06/18 09:03:12;;;;;;;5.03;1.75;;;;;;;23.07;100.00;99759.45;1729296;82;21023;-67
2022/06/18 09:06:17;;;;;;;2.98;1.82;;;;;;;23.08;100.00;99766.63;1707820;82;21039;-67
2022/06/18 09:08:49;;;;;;;5.97;1.98;;;;;;;22.97;100.00;99769.68;1709349;82;21008;-67
2022/06/18 09:12:02;;;;;;;5.55;2.67;;;;;;;22.33;100.00;99764.98;1708508;82;21082;-67
2022/06/18 09:15:01;;;;;;;5.72;3.15;;;;;;;22.33;100.00;99764.98;1715154;83;21063;-66
2022/06/18 09:17:40;;;;;;;5.45;2.40;;;;;;;22.33;100.00;99772.48;1713620;83;21410;-66
2022/06/18 09:20:24;;;;;;;5.45;2.67;;;;;;;22.57;100.00;99773.81;1712192;82;21520;-69
2022/06/18 09:22:53;;;;;;;4.92;2.37;;;;;;;22.61;100.00;99773.34;1701539;82;21018;-66
2022/06/18 09:25:30;;;;;;;3.47;2.20;;;;;;;22.52;100.00;99767.14;1722959;82;21074;-65
2022/06/18 09:28:06;;;;;;;3.02;2.10;;;;;;;22.31;100.00;99768.69;1719445;82;21027;-66
2022/06/18 09:30:44;;;;;;;4.62;2.60;;;;;;;22.08;100.00;99765.34;1715990;82;21064;-65
2022/06/18 09:33:15;;;;;;;3.70;2.00;;;;;;;22.11;100.00;99766.03;1723281;82;20995;-65
2022/06/18 09:36:08;;;;;;;5.55;1.85;;;;;;;22.15;100.00;99763.61;1716073;82;21063;-68
2022/06/18 09:39:08;;;;;;;2.77;1.90;;;;;;;22.05;100.00;99771.58;1662206;83;21045;-67
2022/06/18 09:42:13;;;;;;;2.98;2.00;;;;;;;21.73;100.00;99777.42;1745123;80;21192;-63
2022/06/18 09:45:03;;;;;;;3.08;1.90;;;;;;;21.34;100.00;99771.93;1740115;81;21054;-67
2022/06/18 09:47:39;;;;;;;3.65;2.10;;;;;;;21.17;100.00;99780.42;1758574;80;21062;-65
2022/06/18 09:50:42;;;;;;;3.62;1.90;;;;;;;21.07;100.00;99770.56;1729986;81;21462;-65
2022/06/18 09:53:28;;;;;;;4.22;2.30;;;;;;;20.94;100.00;99769.47;1751730;80;21006;-65
2022/06/18 09:56:11;;;;;;;3.65;2.10;;;;;;;20.77;100.00;99771.80;1741920;81;21119;-65
2022/06/18 09:58:54;;;;;;;2.95;2.35;;;;;;;20.81;100.00;99756.95;1747133;79;21009;-62
2022/06/18 10:01:26;;;;;;;3.42;2.37;;;;;;;21.05;100.00;99756.80;1741666;80;21466;-66
2022/06/18 10:06:55;;;;;;;3.75;2.00;;;;;;;21.76;100.00;99754.56;1677290;85;21122;-64
2022/06/18 10:09:30;;;;;;;2.47;1.65;;;;;;;22.05;100.00;99751.61;1707014;82;21045;-65
2022/06/18 10:11:57;;;;;;;8.65;2.10;;;;;;;22.26;100.00;99748.69;1703712;82;21011;-67
2022/06/18 10:14:23;;;;;;;4.53;1.80;;;;;;;22.18;100.00;99755.97;1749215;80;21710;-65
2022/06/18 10:17:11;;;;;;;114.03;99.15;;;;;;;21.99;100.00;99757.16;1740121;80;21006;-68
2022/06/18 10:19:57;;;;;;;5.75;4.08;;;;;;;21.81;100.00;99752.39;1754993;79;21036;-62
2022/06/18 10:22:49;;;;;;;3.92;3.12;;;;;;;21.71;100.00;99753.42;1730644;82;21091;-63
2022/06/18 10:25:41;;;;;;;3.90;2.10;;;;;;;21.65;100.00;99750.63;1732331;82;21046;-63
2022/06/18 10:28:29;;;;;;;6.70;4.72;;;;;;;21.63;100.00;99748.80;1702966;83;21026;-62
2022/06/18 10:31:23;;;;;;;5.37;4.08;;;;;;;21.66;100.00;99746.14;1695803;83;21549;-59
2022/06/18 10:34:28;;;;;;;3.00;1.37;;;;;;;21.90;100.00;99745.37;1695700;83;20983;-62
2022/06/18 10:37:22;;;;;;;5.45;1.60;;;;;;;22.32;100.00;99741.16;1749590;80;21122;-64
2022/06/18 10:40:05;;;;;;;3.65;1.40;;;;;;;22.61;100.00;99736.47;1778582;79;21659;-64
2022/06/18 10:43:09;;;;;;;3.80;1.57;;;;;;;22.54;100.00;99742.63;1777295;79;21551;-67
2022/06/18 10:45:47;;;;;;;3.52;1.60;;;;;;;22.25;100.00;99749.84;1775251;80;21449;-63
2022/06/18 10:48:21;;;;;;;3.50;1.67;;;;;;;22.00;100.00;99749.05;1758853;80;21019;-66
2022/06/18 10:50:50;;;;;;;157.52;120.90;;;;;;;21.79;100.00;99754.69;1772852;79;21086;-68
2022/06/18 10:53:20;;;;;;;53.83;48.52;;;;;;;21.72;100.00;99748.91;1746692;80;21100;-65
2022/06/18 10:56:16;;;;;;;17.12;15.35;;;;;;;21.78;100.00;99746.73;1771564;79;21081;-64
2022/06/18 10:58:54;;;;;;;3.72;1.50;;;;;;;21.86;100.00;99743.63;1780125;80;21061;-65
2022/06/18 11:01:32;;;;;;;3.33;2.30;;;;;;;21.98;100.00;99745.83;1771590;79;21002;-62
2022/06/18 11:04:01;;;;;;;2.98;1.30;;;;;;;22.11;100.00;99738.30;1774408;80;21031;-64
2022/06/18 11:06:28;;;;;;;8.13;6.47;;;;;;;22.29;100.00;99741.87;1773976;79;21422;-62
2022/06/18 11:08:58;;;;;;;8.18;7.00;;;;;;;22.41;100.00;99729.95;1777989;80;20966;-62
2022/06/18 11:11:29;;;;;;;10.55;9.53;;;;;;;22.62;100.00;99731.97;1771989;80;20975;-62
2022/06/18 11:14:17;;;;;;;3.40;1.87;;;;;;;22.94;100.00;99723.20;1751725;79;67552;-66
2022/06/18 11:16:46;;;;;;;4.50;1.65;;;;;;;23.33;100.00;99721.48;1732695;82;21028;-67
2022/06/18 11:19:21;;;;;;;58.75;50.90;;;;;;;23.38;100.00;99725.40;1727556;82;21135;-65
2022/06/18 11:21:48;;;;;;;19.67;13.98;;;;;;;23.33;98.67;99726.23;1702618;82;21002;-66
2022/06/18 11:24:32;;;;;;;3.02;1.80;;;;;;;23.33;98.67;99726.23;1702884;84;21506;-66
2022/06/18 11:27:02;;;;;;;3.50;1.35;;;;;;;23.36;95.79;99731.06;1685995;84;21005;-69
2022/06/18 11:29:44;;;;;;;2.67;1.20;;;;;;;23.18;100.00;99749.45;1706307;82;21006;-68
2022/06/18 11:32:18;;;;;;;1.47;0.90;;;;;;;22.94;99.88;99744.59;1704942;84;21056;-66
2022/06/18 11:34:47;;;;;;;2.35;1.02;;;;;;;22.69;98.37;99746.66;1666575;84;21137;-64
2022/06/18 11:37:23;;;;;;;1.60;0.95;;;;;;;22.61;100.00;99745.61;1677302;84;21000;-68
2022/06/18 11:39:57;;;;;;;2.40;1.20;;;;;;;22.61;97.78;99740.63;1692931;83;21157;-67
2022/06/18 11:42:29;;;;;;;3.70;1.20;;;;;;;22.60;97.46;99734.27;1698122;84;20988;-66
2022/06/18 11:45:37;;;;;;;2.12;1.00;;;;;;;22.70;96.73;99739.96;1702014;83;21080;-68
2022/06/18 11:48:30;;;;;;;3.17;1.10;;;;;;;22.91;94.85;99719.75;1700948;83;21012;-68
2022/06/18 11:51:11;;;;;;;4.92;1.05;;;;;;;23.16;91.06;99720.44;1686620;84;21633;-66
2022/06/18 11:53:42;;;;;;;2.35;1.10;;;;;;;23.30;86.94;99720.23;1699319;83;20955;-66
2022/06/18 11:56:17;;;;;;;3.33;1.52;;;;;;;23.41;87.74;99701.65;1675761;84;20970;-68
2022/06/18 11:59:02;;;;;;;3.58;1.22;;;;;;;23.58;87.72;99712.44;1685454;84;21553;-67
2022/06/18 12:01:35;;;;;;;3.08;1.00;;;;;;;23.50;80.30;99722.55;1675046;85;21004;-69
2022/06/18 12:04:26;;;;;;;16.48;11.80;;;;;;;23.50;80.30;99722.55;1677469;85;21014;-66
2022/06/18 12:07:26;;;;;;;1.57;0.90;;;;;;;23.28;79.37;99722.55;1683562;83;20984;-67
2022/06/18 12:09:53;;;;;;;2.47;1.10;;;;;;;23.07;78.00;99721.16;1701523;82;21025;-69